createdAt,value
2022-10-08T00:00:47.559Z,1.95
2022-10-08T00:03:23.335Z,1.45
2022-10-08T00:06:06.837Z,1.67
2022-10-08T00:08:41.416Z,1.50
2022-10-08T00:11:20.641Z,2.53
2022-10-08T00:13:51.620Z,2.53
2022-10-08T00:16:26.269Z,2.13
2022-10-08T00:18:59.452Z,1.80
2022-10-08T00:21:29.971Z,3.00
2022-10-08T00:24:04.204Z,1.80
2022-10-08T00:26:39.836Z,2.00
2022-10-08T00:29:15.295Z,2.65
2022-10-08T00:31:44.463Z,2.33
2022-10-08T00:34:15.035Z,2.50
2022-10-08T00:36:42.903Z,1.98
2022-10-08T00:39:16.169Z,2.50
2022-10-08T00:41:52.336Z,1.67
2022-10-08T00:44:41.754Z,2.05
2022-10-08T00:47:20.541Z,2.63
2022-10-08T00:49:49.861Z,2.47
2022-10-08T00:52:26.520Z,2.60
2022-10-08T00:55:04.227Z,2.25
2022-10-08T00:57:35.149Z,2.95
2022-10-08T01:00:14.079Z,2.60
2022-10-08T01:02:46.024Z,3.20
2022-10-08T01:05:17.210Z,2.80
2022-10-08T01:07:49.516Z,2.45
2022-10-08T01:10:33.460Z,2.85
2022-10-08T01:13:13.282Z,2.58
2022-10-08T01:15:48.565Z,2.92
2022-10-08T01:18:46.919Z,3.13
2022-10-08T01:21:21.609Z,3.55
2022-10-08T01:24:13.123Z,3.20
2022-10-08T01:26:51.926Z,3.60
2022-10-08T01:29:24.894Z,4.63
2022-10-08T01:32:01.597Z,3.20
2022-10-08T01:34:41.110Z,2.72
2022-10-08T01:37:14.229Z,3.05
2022-10-08T01:39:44.789Z,2.47
2022-10-08T01:42:12.943Z,3.03
2022-10-08T01:44:48.978Z,2.80
2022-10-08T01:47:24.163Z,3.20
2022-10-08T01:49:58.390Z,2.58
2022-10-08T01:52:41.766Z,3.20
2022-10-08T01:55:31.798Z,3.17
2022-10-08T01:58:04.476Z,3.70
2022-10-08T02:00:34.494Z,3.45
2022-10-08T02:03:02.660Z,3.70
2022-10-08T02:05:33.154Z,2.53
2022-10-08T02:08:02.016Z,3.05
2022-10-08T02:10:38.567Z,3.53
2022-10-08T02:13:05.957Z,3.33
2022-10-08T02:15:48.462Z,4.00
2022-10-08T02:18:18.433Z,3.47
2022-10-08T02:20:50.393Z,3.03
2022-10-08T02:23:37.606Z,3.58
2022-10-08T02:26:06.735Z,3.15
2022-10-08T02:28:43.386Z,3.67
2022-10-08T02:31:26.657Z,3.55
2022-10-08T02:34:04.794Z,4.45
2022-10-08T02:36:35.332Z,3.42
2022-10-08T02:39:06.543Z,3.20
2022-10-08T02:41:41.433Z,3.10
2022-10-08T02:44:10.338Z,5.15
2022-10-08T02:46:41.280Z,2.95
2022-10-08T02:49:24.385Z,3.78
2022-10-08T02:51:53.565Z,3.78
2022-10-08T02:54:28.180Z,3.38
2022-10-08T02:57:15.589Z,3.28
2022-10-08T02:59:47.927Z,3.33
2022-10-08T03:02:25.566Z,4.85
2022-10-08T03:05:01.758Z,4.80
2022-10-08T03:07:36.546Z,4.63
2022-10-08T03:10:10.775Z,3.65
2022-10-08T03:12:39.713Z,4.03
2022-10-08T03:15:08.779Z,4.47
2022-10-08T03:17:48.467Z,4.78
2022-10-08T03:20:21.929Z,3.20
2022-10-08T03:22:49.742Z,3.58
2022-10-08T03:25:17.836Z,3.45
2022-10-08T03:27:57.264Z,4.38
2022-10-08T03:30:24.929Z,3.30
2022-10-08T03:32:52.695Z,3.78
2022-10-08T03:35:23.141Z,5.13
2022-10-08T03:37:52.555Z,3.55
2022-10-08T03:40:25.554Z,3.70
2022-10-08T03:42:55.805Z,3.00
2022-10-08T03:45:24.651Z,3.85
2022-10-08T03:47:55.168Z,3.65
2022-10-08T03:50:22.713Z,4.30
2022-10-08T03:52:50.476Z,3.75
2022-10-08T03:55:18.487Z,3.17
2022-10-08T03:57:46.040Z,3.30
2022-10-08T04:00:16.228Z,2.97
2022-10-08T04:02:43.804Z,4.00
2022-10-08T04:05:21.206Z,3.20
2022-10-08T04:07:48.672Z,3.08
2022-10-08T04:10:16.092Z,3.08
2022-10-08T04:12:43.562Z,3.25
2022-10-08T04:15:19.947Z,3.35
2022-10-08T04:17:47.588Z,2.80
2022-10-08T04:20:18.732Z,3.55
2022-10-08T04:22:46.710Z,3.80
2022-10-08T04:25:23.628Z,2.70
2022-10-08T04:27:51.129Z,3.13
2022-10-08T04:30:18.786Z,4.15
2022-10-08T04:32:49.253Z,2.90
2022-10-08T04:35:22.358Z,2.55
2022-10-08T04:38:11.997Z,2.53
2022-10-08T04:40:46.564Z,3.10
2022-10-08T04:43:15.612Z,2.72
2022-10-08T04:45:46.212Z,3.00
2022-10-08T04:51:09.375Z,3.03
2022-10-08T04:53:46.943Z,3.45
2022-10-08T04:56:18.935Z,2.85
2022-10-08T04:58:49.216Z,2.72
2022-10-08T05:01:22.959Z,4.43
2022-10-08T05:04:01.178Z,3.45
2022-10-08T05:06:29.998Z,2.60
2022-10-08T05:09:00.159Z,2.35
2022-10-08T05:11:30.448Z,2.67
2022-10-08T05:14:12.042Z,2.53
2022-10-08T05:16:56.817Z,2.88
2022-10-08T05:19:26.747Z,2.50
2022-10-08T05:21:54.252Z,2.13
2022-10-08T05:24:24.882Z,2.42
2022-10-08T05:26:59.181Z,2.92
2022-10-08T05:29:29.904Z,2.47
2022-10-08T05:31:57.606Z,2.42
2022-10-08T05:34:28.197Z,3.10
2022-10-08T05:36:55.840Z,2.22
2022-10-08T05:39:26.521Z,2.60
2022-10-08T05:41:57.568Z,3.45
2022-10-08T05:44:25.774Z,2.13
2022-10-08T05:46:54.898Z,2.22
2022-10-08T05:49:23.389Z,2.00
2022-10-08T05:51:55.806Z,2.70
2022-10-08T05:54:23.365Z,2.58
2022-10-08T05:56:53.396Z,2.28
2022-10-08T05:59:22.667Z,2.63
2022-10-08T06:01:53.224Z,2.53
2022-10-08T06:04:23.975Z,2.38
2022-10-08T06:06:56.554Z,2.47
2022-10-08T06:09:24.772Z,2.53
2022-10-08T06:12:01.512Z,2.38
2022-10-08T06:14:29.750Z,2.33
2022-10-08T06:16:59.767Z,2.95
2022-10-08T06:19:27.411Z,3.80
2022-10-08T06:21:57.756Z,2.75
2022-10-08T06:24:30.342Z,2.95
2022-10-08T06:27:01.836Z,3.40
2022-10-08T06:29:29.242Z,2.45
2022-10-08T06:31:59.329Z,3.45
2022-10-08T06:34:29.329Z,3.22
2022-10-08T06:37:00.269Z,3.33
2022-10-08T06:39:27.662Z,2.80
2022-10-08T06:41:57.667Z,3.28
2022-10-08T06:44:29.892Z,3.70
2022-10-08T06:46:59.899Z,4.45
2022-10-08T06:49:30.303Z,3.47
2022-10-08T06:51:57.891Z,3.53
2022-10-08T06:54:27.452Z,3.75
2022-10-08T06:56:57.791Z,3.90
2022-10-08T06:59:27.145Z,4.03
2022-10-08T07:02:00.696Z,3.95
2022-10-08T07:04:28.116Z,3.50
2022-10-08T07:06:58.467Z,4.07
2022-10-08T07:09:36.546Z,3.83
2022-10-08T07:12:04.278Z,3.55
2022-10-08T07:14:32.629Z,3.55
2022-10-08T07:17:11.391Z,3.53
2022-10-08T07:19:44.128Z,5.35
2022-10-08T07:22:14.894Z,4.28
2022-10-08T07:24:42.568Z,4.25
2022-10-08T07:27:13.834Z,3.88
2022-10-08T07:29:43.715Z,4.15
2022-10-08T07:32:11.223Z,3.63
2022-10-08T07:34:41.543Z,3.20
2022-10-08T07:37:12.820Z,3.13
2022-10-08T07:39:42.785Z,2.13
2022-10-08T07:42:21.663Z,2.22
2022-10-08T07:44:49.693Z,2.50
2022-10-08T07:47:17.296Z,2.08
2022-10-08T07:49:44.974Z,3.03
2022-10-08T07:52:12.633Z,2.95
2022-10-08T07:54:52.161Z,2.42
2022-10-08T07:59:53.475Z,2.20
2022-10-08T08:02:30.885Z,2.25
2022-10-08T08:05:06.824Z,1.63
2022-10-08T08:07:34.364Z,1.85
2022-10-08T08:10:05.605Z,2.42
2022-10-08T08:12:45.601Z,2.08
2022-10-08T08:15:26.923Z,2.95
2022-10-08T08:18:03.452Z,1.92
2022-10-08T08:20:34.147Z,4.13
2022-10-08T08:23:05.776Z,2.38
2022-10-08T08:25:49.133Z,1.88
2022-10-08T08:28:23.788Z,2.13
2022-10-08T08:30:53.703Z,1.60
2022-10-08T08:33:25.585Z,2.85
2022-10-08T08:35:53.857Z,1.35
2022-10-08T08:38:23.708Z,1.90
2022-10-08T08:40:52.570Z,2.28
2022-10-08T08:43:24.441Z,2.07
2022-10-08T08:45:55.227Z,2.08
2022-10-08T08:48:33.193Z,2.45
2022-10-08T08:51:01.090Z,2.03
2022-10-08T08:53:32.896Z,1.85
2022-10-08T08:56:05.888Z,2.42
2022-10-08T08:58:43.794Z,2.28
2022-10-08T09:01:18.803Z,2.03
2022-10-08T09:03:56.604Z,2.28
2022-10-08T09:06:27.199Z,2.72
2022-10-08T09:09:00.528Z,2.53
2022-10-08T09:11:30.440Z,2.60
2022-10-08T09:14:11.861Z,1.70
2022-10-08T09:16:42.659Z,1.60
2022-10-08T09:19:13.265Z,1.58
2022-10-08T09:21:43.898Z,1.92
2022-10-08T09:24:16.428Z,2.15
2022-10-08T09:29:33.723Z,1.65
2022-10-08T09:32:03.334Z,2.83
2022-10-08T09:34:31.005Z,1.30
2022-10-08T09:37:06.221Z,1.73
2022-10-08T09:39:37.077Z,1.50
2022-10-08T09:42:12.341Z,1.88
2022-10-08T09:44:42.704Z,2.53
2022-10-08T09:47:17.863Z,1.40
2022-10-08T09:49:50.192Z,1.33
2022-10-08T09:52:23.402Z,1.70
2022-10-08T09:55:06.922Z,1.27
2022-10-08T09:57:44.095Z,1.50
2022-10-08T10:00:35.849Z,2.85
2022-10-08T10:03:19.557Z,1.70
2022-10-08T10:05:58.208Z,1.45
2022-10-08T10:08:45.411Z,1.42
2022-10-08T10:11:17.583Z,1.98
2022-10-08T10:13:45.788Z,1.17
2022-10-08T10:16:20.450Z,1.10
2022-10-08T10:18:54.324Z,1.48
2022-10-08T10:21:34.664Z,1.95
2022-10-08T10:24:11.893Z,3.45
2022-10-08T10:26:45.643Z,1.70
2022-10-08T10:29:18.409Z,1.98
2022-10-08T10:31:58.583Z,1.85
2022-10-08T10:34:28.067Z,1.60
2022-10-08T10:37:02.992Z,2.10
2022-10-08T10:39:39.391Z,1.52
2022-10-08T10:42:39.767Z,2.38
2022-10-08T10:45:25.368Z,1.93
2022-10-08T10:47:54.405Z,2.85
2022-10-08T10:50:38.417Z,2.97
2022-10-08T10:53:14.382Z,1.90
2022-10-08T10:55:56.286Z,1.70
2022-10-08T10:58:37.655Z,2.75
2022-10-08T11:01:05.128Z,1.58
2022-10-08T11:03:38.795Z,2.88
2022-10-08T11:06:29.815Z,2.38
2022-10-08T11:09:18.433Z,1.88
2022-10-08T11:11:48.470Z,1.95
2022-10-08T11:14:34.736Z,1.45
2022-10-08T11:17:24.145Z,1.90
2022-10-08T11:22:54.133Z,1.90
2022-10-08T11:25:28.559Z,1.40
2022-10-08T11:28:01.627Z,2.20
2022-10-08T11:30:38.465Z,2.03
2022-10-08T11:35:43.888Z,1.30
2022-10-08T11:38:18.105Z,2.78
2022-10-08T11:40:52.442Z,2.40
2022-10-08T11:43:33.601Z,2.20
2022-10-08T11:46:22.554Z,12.02
2022-10-08T11:48:50.815Z,2.25
2022-10-08T11:51:18.793Z,2.13
2022-10-08T11:54:01.737Z,1.63
2022-10-08T11:56:30.049Z,1.55
2022-10-08T11:59:02.919Z,1.45
2022-10-08T12:01:30.544Z,1.75
2022-10-08T12:04:09.283Z,2.53
2022-10-08T12:06:42.553Z,1.38
2022-10-08T12:09:18.459Z,1.88
2022-10-08T12:11:50.067Z,1.58
2022-10-08T12:14:17.823Z,1.30
2022-10-08T12:16:45.460Z,6.72
2022-10-08T12:19:40.023Z,3.78
2022-10-08T12:22:16.867Z,2.50
2022-10-08T12:24:50.030Z,2.08
2022-10-08T12:27:18.389Z,1.15
2022-10-08T12:30:05.099Z,1.80
2022-10-08T12:33:00.350Z,1.20
2022-10-08T12:38:22.406Z,1.67
2022-10-08T12:41:22.365Z,1.45
2022-10-08T12:43:53.868Z,1.27
2022-10-08T12:46:50.993Z,2.20
2022-10-08T12:49:50.981Z,1.50
2022-10-08T12:52:19.436Z,1.15
2022-10-08T12:54:50.944Z,1.35
2022-10-08T12:57:36.977Z,1.35
2022-10-08T13:00:15.028Z,3.50
2022-10-08T13:02:43.939Z,1.27
2022-10-08T13:05:32.013Z,1.30
2022-10-08T13:08:00.740Z,1.25
2022-10-08T13:10:29.436Z,1.20
2022-10-08T13:13:07.750Z,0.90
2022-10-08T13:15:35.697Z,1.20
2022-10-08T13:18:21.829Z,1.30
2022-10-08T13:21:09.155Z,1.25
2022-10-08T13:23:43.574Z,1.10
2022-10-08T13:26:30.249Z,1.35
2022-10-08T13:29:19.302Z,0.82
2022-10-08T13:32:08.723Z,1.45
2022-10-08T13:34:47.075Z,1.27
2022-10-08T13:37:26.490Z,1.10
2022-10-08T13:40:00.710Z,1.00
2022-10-08T13:42:42.355Z,1.10
2022-10-08T13:45:15.948Z,1.20
2022-10-08T13:47:44.874Z,1.30
2022-10-08T13:50:13.927Z,1.02
2022-10-08T13:52:46.145Z,1.20
2022-10-08T13:55:22.173Z,1.05
2022-10-08T13:57:50.327Z,1.55
2022-10-08T14:00:18.311Z,1.40
2022-10-08T14:02:45.717Z,1.50
2022-10-08T14:05:15.794Z,1.20
2022-10-08T14:07:43.708Z,1.45
2022-10-08T14:10:15.447Z,1.48
2022-10-08T14:12:45.822Z,2.72
2022-10-08T14:15:17.001Z,1.63
2022-10-08T14:17:57.631Z,1.98
2022-10-08T14:20:34.208Z,1.55
2022-10-08T14:23:03.822Z,1.35
2022-10-08T14:25:31.988Z,1.50
2022-10-08T14:28:07.205Z,1.75
2022-10-08T14:30:36.768Z,2.65
2022-10-08T14:33:08.979Z,2.63
2022-10-08T14:35:39.974Z,1.75
2022-10-08T14:38:15.949Z,2.15
2022-10-08T14:40:46.876Z,1.70
2022-10-08T14:43:15.295Z,1.80
2022-10-08T14:45:42.808Z,1.67
2022-10-08T14:48:11.323Z,2.10
2022-10-08T14:50:41.327Z,1.30
2022-10-08T14:53:11.804Z,2.65
2022-10-08T14:56:07.821Z,2.35
2022-10-08T14:58:32.660Z,1.50
2022-10-08T15:01:00.194Z,2.83
2022-10-08T15:03:30.258Z,1.45
2022-10-08T15:06:00.926Z,1.70
2022-10-08T15:08:32.559Z,2.17
2022-10-08T15:11:05.968Z,2.55
2022-10-08T15:13:33.675Z,2.10
2022-10-08T15:16:01.912Z,1.48
2022-10-08T15:18:32.722Z,1.67
2022-10-08T15:21:03.573Z,1.75
2022-10-08T15:23:34.253Z,1.50
2022-10-08T15:26:08.434Z,1.80
2022-10-08T15:28:39.692Z,1.80
2022-10-08T15:31:14.252Z,1.70
2022-10-08T15:33:48.817Z,1.77
2022-10-08T15:36:22.259Z,2.03
2022-10-08T15:38:57.605Z,2.10
2022-10-08T15:41:28.171Z,1.80
2022-10-08T15:44:07.291Z,3.35
2022-10-08T15:46:34.784Z,3.35
2022-10-08T15:49:03.252Z,2.13
2022-10-08T15:51:31.573Z,2.35
2022-10-08T15:54:01.634Z,1.40
2022-10-08T15:56:29.370Z,2.08
2022-10-08T15:58:58.668Z,1.50
2022-10-08T16:01:29.913Z,2.10
2022-10-08T16:04:01.211Z,1.55
2022-10-08T16:06:32.840Z,1.60
2022-10-08T16:09:02.991Z,2.50
2022-10-08T16:11:31.808Z,1.80
2022-10-08T16:14:02.549Z,2.50
2022-10-08T16:16:32.512Z,3.83
2022-10-08T16:19:01.239Z,2.63
2022-10-08T16:21:29.944Z,3.23
2022-10-08T16:23:58.388Z,2.17
2022-10-08T16:26:26.278Z,2.13
2022-10-08T16:29:00.945Z,2.75
2022-10-08T16:31:30.177Z,2.40
2022-10-08T16:34:02.320Z,1.70
2022-10-08T16:36:30.652Z,1.98
2022-10-08T16:38:58.737Z,1.83
2022-10-08T16:41:30.067Z,1.75
2022-10-08T16:43:59.811Z,1.95
2022-10-08T16:46:35.259Z,2.17
2022-10-08T16:49:05.852Z,2.28
2022-10-08T16:51:36.901Z,2.05
2022-10-08T16:54:07.711Z,1.55
2022-10-08T16:56:37.555Z,2.10
2022-10-08T16:59:16.268Z,1.70
2022-10-08T17:01:47.809Z,2.03
2022-10-08T17:04:29.046Z,2.58
2022-10-08T17:07:02.071Z,3.00
2022-10-08T17:09:29.508Z,2.40
2022-10-08T17:14:26.698Z,1.90
2022-10-08T17:16:56.472Z,2.40
2022-10-08T17:19:23.891Z,1.77
2022-10-08T17:21:59.508Z,1.65
2022-10-08T17:24:27.361Z,2.35
2022-10-08T17:26:58.089Z,3.78
2022-10-08T17:29:25.718Z,4.18
2022-10-08T17:31:55.891Z,5.50
2022-10-08T17:34:25.960Z,3.75
2022-10-08T17:36:53.689Z,2.85
2022-10-08T17:42:07.330Z,1.80
2022-10-08T17:44:38.094Z,3.33
2022-10-08T17:47:08.141Z,2.35
2022-10-08T17:49:46.063Z,2.25
2022-10-08T17:52:13.596Z,2.80
2022-10-08T17:54:49.420Z,3.08
2022-10-08T17:57:17.123Z,3.10
2022-10-08T17:59:44.495Z,3.55
2022-10-08T18:02:22.377Z,4.57
2022-10-08T18:04:53.973Z,4.18
2022-10-08T18:07:21.509Z,4.97
2022-10-08T18:09:51.502Z,5.50
2022-10-08T18:12:19.077Z,6.15
2022-10-08T18:14:46.906Z,5.57
2022-10-08T18:17:14.387Z,8.38
2022-10-08T18:19:47.578Z,8.63
2022-10-08T18:22:18.534Z,8.77
2022-10-08T18:24:46.205Z,8.98
2022-10-08T18:27:19.832Z,8.70
2022-10-08T18:29:47.678Z,9.13
2022-10-08T18:32:17.864Z,9.00
2022-10-08T18:34:46.124Z,9.23
2022-10-08T18:37:18.231Z,8.70
2022-10-08T18:39:46.034Z,8.73
2022-10-08T18:42:13.494Z,8.32
2022-10-08T18:44:44.067Z,9.02
2022-10-08T18:47:11.633Z,8.38
2022-10-08T18:49:39.171Z,8.88
2022-10-08T18:52:08.907Z,8.70
2022-10-08T18:54:36.364Z,8.20
2022-10-08T18:57:04.025Z,6.93
2022-10-08T18:59:32.152Z,6.28
2022-10-08T19:02:00.849Z,5.57
2022-10-08T19:04:28.420Z,6.20
2022-10-08T19:06:56.391Z,5.32
2022-10-08T19:09:26.542Z,5.05
2022-10-08T19:11:54.685Z,4.28
2022-10-08T19:14:25.983Z,4.85
2022-10-08T19:16:55.959Z,5.03
2022-10-08T19:19:25.940Z,4.53
2022-10-08T19:21:54.553Z,4.65
2022-10-08T19:24:24.103Z,4.65
2022-10-08T19:29:29.585Z,4.78
2022-10-08T19:32:00.447Z,3.85
2022-10-08T19:34:28.839Z,4.82
2022-10-08T19:36:57.631Z,3.92
2022-10-08T19:39:29.431Z,4.37
2022-10-08T19:41:57.118Z,4.13
2022-10-08T19:44:24.941Z,4.80
2022-10-08T19:46:52.600Z,5.55
2022-10-08T19:49:23.199Z,4.93
2022-10-08T19:51:50.683Z,5.50
2022-10-08T19:54:18.466Z,4.35
2022-10-08T19:56:46.334Z,5.40
2022-10-08T19:59:19.371Z,5.20
2022-10-08T20:01:46.912Z,6.25
2022-10-08T20:04:19.847Z,5.47
2022-10-08T20:06:47.692Z,5.65
2022-10-08T20:09:15.892Z,5.47
2022-10-08T20:11:52.410Z,5.22
2022-10-08T20:14:19.920Z,6.63
2022-10-08T20:16:49.029Z,5.03
2022-10-08T20:19:18.372Z,6.00
2022-10-08T20:21:46.085Z,5.97
2022-10-08T20:24:13.585Z,4.85
2022-10-08T20:26:41.903Z,5.68
2022-10-08T20:29:13.925Z,4.72
2022-10-08T20:31:51.615Z,5.13
2022-10-08T20:34:31.802Z,6.53
2022-10-08T20:37:01.611Z,5.20
2022-10-08T20:39:31.516Z,5.10
2022-10-08T20:42:02.295Z,5.28
2022-10-08T20:44:29.661Z,6.88
2022-10-08T20:46:57.279Z,5.53
2022-10-08T20:49:25.120Z,7.68
2022-10-08T20:51:52.899Z,13.30
2022-10-08T20:54:20.359Z,9.88
2022-10-08T20:56:52.254Z,8.27
2022-10-08T20:59:19.778Z,8.98
2022-10-08T21:01:50.653Z,8.18
2022-10-08T21:04:21.487Z,8.60
2022-10-08T21:06:53.802Z,7.72
2022-10-08T21:09:23.924Z,10.50
2022-10-08T21:11:53.662Z,10.23
2022-10-08T21:16:51.227Z,7.50
2022-10-08T21:22:03.529Z,7.82
2022-10-08T21:24:31.126Z,8.95
2022-10-08T21:26:58.731Z,8.00
2022-10-08T21:29:28.035Z,9.73
2022-10-08T21:31:55.572Z,8.85
2022-10-08T21:34:25.954Z,10.43
2022-10-08T21:36:53.463Z,7.60
2022-10-08T21:39:20.951Z,9.00
2022-10-08T21:41:52.616Z,7.53
2022-10-08T21:44:21.537Z,8.82
2022-10-08T21:46:49.046Z,8.48
2022-10-08T21:49:19.414Z,8.00
2022-10-08T21:51:47.188Z,7.72
2022-10-08T21:54:17.518Z,8.10
2022-10-08T21:56:45.484Z,6.78
2022-10-08T21:59:16.629Z,6.75
2022-10-08T22:01:45.229Z,7.25
2022-10-08T22:04:17.664Z,8.65
2022-10-08T22:06:46.697Z,7.88
2022-10-08T22:09:17.937Z,7.63
2022-10-08T22:11:45.398Z,8.63
2022-10-08T22:14:12.815Z,7.50
2022-10-08T22:16:40.324Z,6.88
2022-10-08T22:19:08.121Z,8.10
2022-10-08T22:21:37.797Z,7.35
2022-10-08T22:29:02.953Z,8.18
2022-10-08T22:31:30.889Z,9.15
2022-10-08T22:33:59.844Z,9.13
2022-10-08T22:36:28.506Z,9.07
2022-10-08T22:39:02.133Z,8.63
2022-10-08T22:41:31.577Z,9.95
2022-10-08T22:43:59.767Z,9.65
2022-10-08T22:46:31.895Z,8.85
2022-10-08T22:49:00.177Z,8.80
2022-10-08T22:51:29.893Z,9.93
2022-10-08T22:54:00.399Z,9.70
2022-10-08T22:56:31.209Z,10.50
2022-10-08T22:59:00.087Z,9.23
2022-10-08T23:01:30.510Z,8.82
2022-10-08T23:03:58.394Z,8.75
2022-10-08T23:06:27.004Z,8.32
2022-10-08T23:08:56.210Z,9.30
2022-10-08T23:11:24.223Z,9.52
2022-10-08T23:13:52.604Z,9.98
2022-10-08T23:16:20.416Z,9.45
2022-10-08T23:18:52.265Z,8.70
2022-10-08T23:21:19.666Z,8.30
2022-10-08T23:23:50.055Z,8.63
2022-10-08T23:26:17.804Z,8.98
2022-10-08T23:28:45.636Z,9.57
2022-10-08T23:31:16.571Z,9.05
2022-10-08T23:33:45.385Z,7.60
2022-10-08T23:36:16.624Z,9.23
2022-10-08T23:38:48.085Z,8.80
2022-10-08T23:41:15.833Z,8.00
2022-10-08T23:43:52.826Z,8.63
2022-10-08T23:46:21.799Z,9.10
2022-10-08T23:48:49.834Z,9.07
2022-10-08T23:51:18.057Z,9.02
2022-10-08T23:53:46.019Z,9.55
2022-10-08T23:56:16.099Z,11.10
2022-10-08T23:58:46.979Z,9.25
